Time;durP1;ratioP1;P1;durP2;ratioP2;P2;SDS_P1;SDS_P2;PMS_P1;PMS_P2;Temp;Humidity;BMP_temperature;BMP_pressure;BME280_temperature;BME280_humidity;BME280_pressure;Samples;Min_cycle;Max_cycle;Signal;HPM_P1;HPM_P2
2023/12/08 15:02:02;;;;;;;122.75;44.78;;;0.00;99.90;;;;;;5082676;27;20493;-47
2023/12/08 15:04:27;;;;;;;112.80;44.92;;;-0.20;99.90;;;;;;5081441;28;20426;-50
2023/12/08 15:06:53;;;;;;;115.57;49.13;;;-0.20;99.90;;;;;;5083050;28;20063;-49
2023/12/08 15:09:19;;;;;;;116.28;49.72;;;-0.20;99.90;;;;;;5083374;28;20054;-49
2023/12/08 15:11:44;;;;;;;119.15;48.22;;;-0.30;99.90;;;;;;5081609;28;20610;-52
2023/12/08 15:14:10;;;;;;;121.85;50.83;;;-0.40;99.90;;;;;;5082845;28;20028;-47
2023/12/08 15:16:36;;;;;;;135.88;55.05;;;-0.40;99.90;;;;;;5082403;28;20032;-47
2023/12/08 15:19:01;;;;;;;125.85;55.10;;;-0.40;99.90;;;;;;5072980;28;20025;-46
2023/12/08 15:21:28;;;;;;;132.15;54.20;;;-0.40;99.90;;;;;;5062407;28;20458;-46
2023/12/08 15:23:54;;;;;;;138.25;56.08;;;-0.50;99.90;;;;;;5074799;28;20028;-48
2023/12/08 15:26:20;;;;;;;132.60;57.47;;;-0.40;99.90;;;;;;5082981;28;20028;-49
2023/12/08 15:28:46;;;;;;;127.28;53.97;;;-0.40;99.90;;;;;;5080993;28;20047;-46
2023/12/08 15:31:12;;;;;;;130.50;55.63;;;-0.50;99.90;;;;;;5082342;28;20036;-49
2023/12/08 15:33:39;;;;;;;126.63;52.70;;;-0.60;99.90;;;;;;5082507;28;20363;-47
2023/12/08 15:36:08;;;;;;;128.85;54.67;;;-0.60;99.90;;;;;;5081489;28;20025;-49
2023/12/08 15:38:34;;;;;;;116.93;51.72;;;-0.60;99.90;;;;;;5081411;28;20040;-51
2023/12/08 15:41:02;;;;;;;132.33;53.30;;;-0.70;99.90;;;;;;5081736;28;20506;-50
2023/12/08 15:43:27;;;;;;;127.85;55.00;;;-0.70;99.90;;;;;;5082049;28;20502;-49
2023/12/08 15:45:53;;;;;;;130.93;53.15;;;-0.80;99.90;;;;;;5081708;28;20020;-49
2023/12/08 15:48:19;;;;;;;123.53;53.00;;;-0.80;99.90;;;;;;5081819;28;20031;-50
2023/12/08 15:50:44;;;;;;;133.00;55.75;;;-0.80;99.90;;;;;;5081830;28;20986;-47
2023/12/08 15:53:10;;;;;;;123.32;54.70;;;-0.80;99.90;;;;;;5081886;28;20024;-47
2023/12/08 15:55:35;;;;;;;128.85;54.38;;;-0.90;99.90;;;;;;5081597;28;20021;-50
2023/12/08 15:58:01;;;;;;;137.18;55.75;;;-0.80;99.90;;;;;;5081766;28;20032;-48
2023/12/08 16:00:27;;;;;;;128.48;57.45;;;-0.90;99.90;;;;;;5080679;28;20354;-48
2023/12/08 16:02:52;;;;;;;124.70;54.13;;;-0.90;99.90;;;;;;5081430;28;20367;-52
2023/12/08 16:05:18;;;;;;;130.13;56.72;;;-0.90;99.90;;;;;;5081714;28;20047;-52
2023/12/08 16:07:43;;;;;;;132.38;55.25;;;-1.00;99.90;;;;;;5081811;28;20807;-49
2023/12/08 16:10:10;;;;;;;136.52;56.88;;;-1.00;99.90;;;;;;5078910;28;20073;-47
2023/12/08 16:12:36;;;;;;;138.35;58.30;;;-1.00;99.90;;;;;;5071725;28;20029;-53
2023/12/08 16:15:01;;;;;;;130.38;56.50;;;-1.00;99.90;;;;;;5067923;28;20056;-50
2023/12/08 16:17:28;;;;;;;133.32;58.88;;;-1.10;99.90;;;;;;5067369;28;20372;-49
2023/12/08 16:19:54;;;;;;;128.77;55.40;;;-1.00;99.90;;;;;;5067536;28;20780;-47
2023/12/08 16:22:19;;;;;;;125.22;57.50;;;-1.00;99.90;;;;;;5067829;28;20029;-49
2023/12/08 16:24:46;;;;;;;133.65;55.90;;;-1.00;99.90;;;;;;5066994;28;20036;-48
2023/12/08 16:27:12;;;;;;;133.10;57.50;;;-1.00;99.90;;;;;;5067431;28;20064;-50
2023/12/08 16:29:40;;;;;;;140.43;56.72;;;-1.10;99.90;;;;;;5067291;28;20058;-51
2023/12/08 16:32:06;;;;;;;125.25;53.70;;;-1.10;99.90;;;;;;5067277;28;20033;-48
2023/12/08 16:34:32;;;;;;;134.05;54.25;;;-1.10;99.90;;;;;;5067078;28;20123;-47
2023/12/08 16:36:58;;;;;;;122.72;53.75;;;-1.10;99.90;;;;;;5067204;28;20112;-53
2023/12/08 16:39:24;;;;;;;123.75;51.78;;;-1.00;99.90;;;;;;5068085;28;20043;-49
2023/12/08 16:41:49;;;;;;;119.90;51.13;;;-1.00;99.90;;;;;;5068176;28;20036;-49
2023/12/08 16:44:15;;;;;;;127.95;52.80;;;-1.00;99.90;;;;;;5065693;28;20028;-47
2023/12/08 16:46:41;;;;;;;126.70;53.40;;;-1.00;99.90;;;;;;5065420;28;20028;-51
2023/12/08 16:49:06;;;;;;;126.90;54.50;;;-0.90;99.90;;;;;;5066094;28;20025;-52
2023/12/08 16:51:35;;;;;;;128.70;54.88;;;-1.00;99.90;;;;;;5067181;28;20039;-48
2023/12/08 16:54:02;;;;;;;129.27;57.40;;;-1.00;99.90;;;;;;5063836;28;20012;-48
2023/12/08 16:56:28;;;;;;;120.78;51.70;;;-1.00;99.90;;;;;;5066781;28;20059;-47
2023/12/08 16:58:54;;;;;;;117.35;50.55;;;-0.90;99.90;;;;;;5065957;28;20025;-47
2023/12/08 17:01:20;;;;;;;115.85;53.40;;;-1.00;99.90;;;;;;5065396;28;20044;-52
2023/12/08 17:03:46;;;;;;;113.32;47.70;;;-1.00;99.90;;;;;;5065733;28;20396;-51
2023/12/08 17:06:13;;;;;;;124.07;55.88;;;-1.10;99.90;;;;;;5066203;28;20020;-52
2023/12/08 17:08:43;;;;;;;124.03;51.42;;;-1.00;99.90;;;;;;5066542;28;20724;-52
2023/12/08 17:11:12;;;;;;;131.20;58.03;;;-1.00;99.90;;;;;;5066499;28;20649;-49
2023/12/08 17:13:38;;;;;;;130.55;54.15;;;-1.00;99.90;;;;;;5063726;28;20089;-50
2023/12/08 17:16:05;;;;;;;127.40;57.92;;;-1.00;99.90;;;;;;5066589;28;20020;-47
2023/12/08 17:18:34;;;;;;;122.80;53.60;;;-1.00;99.90;;;;;;5066335;28;20608;-55
2023/12/08 17:21:00;;;;;;;122.93;56.67;;;-1.00;99.90;;;;;;5066186;28;20052;-53
2023/12/08 17:23:26;;;;;;;126.38;55.00;;;-1.00;99.90;;;;;;5065445;28;20067;-52
2023/12/08 17:25:53;;;;;;;119.13;54.92;;;-1.10;99.90;;;;;;5065723;28;20048;-51
2023/12/08 17:28:19;;;;;;;133.80;59.38;;;-1.00;99.90;;;;;;5066238;28;20033;-50
2023/12/08 17:30:44;;;;;;;126.07;56.95;;;-1.00;99.90;;;;;;5065708;28;20545;-52
2023/12/08 17:33:11;;;;;;;130.20;56.90;;;-1.00;99.90;;;;;;5065105;28;20071;-52
2023/12/08 17:35:37;;;;;;;138.80;58.23;;;-1.00;99.90;;;;;;5065250;28;20021;-51
2023/12/08 17:38:02;;;;;;;146.33;58.80;;;-1.00;99.90;;;;;;5066144;28;20363;-54
2023/12/08 17:40:29;;;;;;;126.32;57.15;;;-1.00;99.90;;;;;;5065430;28;20032;-53
2023/12/08 17:42:54;;;;;;;131.67;56.93;;;-1.10;99.90;;;;;;5066305;28;20028;-55
2023/12/08 17:45:20;;;;;;;135.45;57.85;;;-1.10;99.90;;;;;;5066270;28;20345;-53
2023/12/08 17:47:48;;;;;;;136.05;57.50;;;-1.10;99.90;;;;;;5065826;28;20074;-51
2023/12/08 17:50:14;;;;;;;132.95;56.63;;;-1.10;99.90;;;;;;5065910;28;20379;-50
2023/12/08 17:52:40;;;;;;;151.18;61.25;;;-1.20;99.90;;;;;;5065992;28;20114;-51
2023/12/08 17:55:07;;;;;;;137.45;60.38;;;-1.20;99.90;;;;;;5065705;28;20029;-51
2023/12/08 17:57:38;;;;;;;142.45;60.35;;;-1.20;99.90;;;;;;5065874;28;20055;-46
2023/12/08 18:00:07;;;;;;;136.00;56.35;;;-1.30;99.90;;;;;;5065987;28;20517;-54
2023/12/08 18:02:36;;;;;;;146.52;63.70;;;-1.20;99.90;;;;;;5065471;28;20107;-53
2023/12/08 18:05:05;;;;;;;138.27;61.25;;;-1.30;99.90;;;;;;5065426;28;20479;-51
2023/12/08 18:07:32;;;;;;;142.32;59.85;;;-1.30;99.90;;;;;;5065634;28;20522;-53
2023/12/08 18:09:58;;;;;;;140.35;59.47;;;-1.30;99.90;;;;;;5065775;28;20008;-48
2023/12/08 18:12:27;;;;;;;149.65;62.45;;;-1.40;99.90;;;;;;5065693;28;20032;-51
2023/12/08 18:14:53;;;;;;;153.30;61.65;;;-1.30;99.90;;;;;;5065578;28;20035;-52
2023/12/08 18:17:19;;;;;;;144.93;58.90;;;-1.30;99.90;;;;;;5065525;28;20048;-49
2023/12/08 18:19:45;;;;;;;163.13;60.08;;;-1.30;99.90;;;;;;5065367;28;20016;-48
2023/12/08 18:22:11;;;;;;;149.43;59.72;;;-1.30;99.90;;;;;;5063773;28;20506;-49
2023/12/08 18:24:37;;;;;;;153.70;61.75;;;-1.30;99.90;;;;;;5062853;28;20819;-48
2023/12/08 18:27:03;;;;;;;140.45;59.47;;;-1.30;99.90;;;;;;5062877;28;20103;-45
2023/12/08 18:29:29;;;;;;;150.02;60.13;;;-1.30;99.90;;;;;;5064670;28;20032;-47
2023/12/08 18:31:57;;;;;;;141.85;57.78;;;-1.30;99.90;;;;;;5064227;28;20039;-53
2023/12/08 18:34:22;;;;;;;140.50;55.47;;;-1.40;99.90;;;;;;5063366;28;20036;-53
2023/12/08 18:36:48;;;;;;;138.57;54.92;;;-1.40;99.90;;;;;;5064862;28;20046;-51
2023/12/08 18:39:14;;;;;;;136.88;58.05;;;-1.50;99.90;;;;;;5064019;28;20115;-47
2023/12/08 18:41:40;;;;;;;132.93;53.45;;;-1.50;99.90;;;;;;5065243;28;20036;-51
2023/12/08 18:44:06;;;;;;;125.93;51.53;;;-1.50;99.90;;;;;;5065305;28;20028;-48
2023/12/08 18:46:33;;;;;;;124.25;51.05;;;-1.60;99.90;;;;;;5064968;28;20036;-52
2023/12/08 18:48:59;;;;;;;116.40;51.35;;;-1.50;99.90;;;;;;5063642;28;20025;-51
2023/12/08 18:51:27;;;;;;;139.65;55.40;;;-1.50;99.90;;;;;;5063143;28;20037;-50
2023/12/08 18:53:56;;;;;;;143.23;55.70;;;-1.50;99.90;;;;;;5064530;28;20044;-54
2023/12/08 18:56:22;;;;;;;134.80;52.13;;;-1.50;99.90;;;;;;5064646;28;20112;-45
2023/12/08 18:58:50;;;;;;;137.23;54.80;;;-1.50;99.90;;;;;;5068000;28;20468;-53
2023/12/08 19:01:16;;;;;;;139.35;56.17;;;-1.50;99.90;;;;;;5075555;28;20047;-52
2023/12/08 19:03:42;;;;;;;138.80;57.92;;;-1.40;99.90;;;;;;5070777;28;20060;-50
2023/12/08 19:06:08;;;;;;;136.38;58.15;;;-1.40;99.90;;;;;;5061905;28;20102;-51
2023/12/08 19:08:34;;;;;;;136.45;58.75;;;-1.40;99.90;;;;;;5064818;28;20025;-52
2023/12/08 19:11:00;;;;;;;146.40;58.65;;;-1.40;99.90;;;;;;5064837;28;20041;-52
2023/12/08 19:13:25;;;;;;;143.73;57.50;;;-1.40;99.90;;;;;;5064935;28;20111;-51
2023/12/08 19:15:52;;;;;;;142.25;59.05;;;-1.40;99.90;;;;;;5064781;28;20032;-47
2023/12/08 19:18:18;;;;;;;133.70;56.95;;;-1.40;99.90;;;;;;5064818;28;20140;-50
2023/12/08 19:20:45;;;;;;;145.93;57.55;;;-1.50;99.90;;;;;;5063085;28;20456;-54
2023/12/08 19:23:11;;;;;;;134.85;55.03;;;-1.30;99.90;;;;;;5065089;28;20033;-50
2023/12/08 19:25:39;;;;;;;130.48;51.63;;;-1.40;99.90;;;;;;5063424;28;20446;-48
2023/12/08 19:28:05;;;;;;;136.63;52.22;;;-1.30;99.90;;;;;;5065865;28;20040;-48
2023/12/08 19:30:31;;;;;;;127.03;54.75;;;-1.40;99.90;;;;;;5065014;28;20021;-51
2023/12/08 19:32:57;;;;;;;125.15;51.72;;;-1.50;99.90;;;;;;5065154;28;20463;-52
2023/12/08 19:37:58;;;;;;;146.55;54.65;;;-1.50;99.90;;;;;;5201174;22;20088;-47
2023/12/08 19:40:24;;;;;;;139.60;53.05;;;-1.40;99.90;;;;;;5044243;28;20041;-51
2023/12/08 19:42:50;;;;;;;124.73;52.37;;;-1.40;99.90;;;;;;5045026;28;20031;-53
2023/12/08 19:45:16;;;;;;;131.93;50.50;;;-1.60;99.90;;;;;;5045347;28;20033;-48
2023/12/08 19:47:42;;;;;;;145.35;56.35;;;-1.50;99.90;;;;;;5046923;28;20065;-55
2023/12/08 19:50:10;;;;;;;143.38;56.70;;;-1.50;99.90;;;;;;5048484;28;20063;-49
2023/12/08 19:52:36;;;;;;;137.98;56.03;;;-1.50;99.90;;;;;;5047661;28;20479;-49
2023/12/08 19:55:02;;;;;;;164.50;64.77;;;-1.50;99.90;;;;;;5013458;28;20013;-48
2023/12/08 19:57:28;;;;;;;157.13;60.72;;;-1.50;99.90;;;;;;5048242;28;20285;-55
2023/12/08 19:59:55;;;;;;;177.90;64.72;;;-1.50;99.90;;;;;;5047859;28;20032;-54
2023/12/08 20:02:22;;;;;;;176.25;68.95;;;-1.60;99.90;;;;;;5047472;28;20479;-52
2023/12/08 20:04:47;;;;;;;181.18;65.72;;;-1.60;99.90;;;;;;5048118;28;20033;-51
2023/12/08 20:07:14;;;;;;;181.18;67.40;;;-1.50;99.90;;;;;;5048243;28;20083;-55
2023/12/08 20:09:39;;;;;;;180.88;64.32;;;-1.40;99.90;;;;;;5040192;28;20029;-51
2023/12/08 20:12:09;;;;;;;178.30;69.35;;;-1.50;99.90;;;;;;5032148;28;20041;-49
2023/12/08 20:14:35;;;;;;;165.77;64.60;;;-1.40;99.90;;;;;;5028223;28;20033;-51
2023/12/08 20:17:01;;;;;;;173.77;64.72;;;-1.50;99.90;;;;;;5028129;28;20040;-50
2023/12/08 20:19:32;;;;;;;175.93;64.10;;;-1.50;99.90;;;;;;5028450;28;20107;-51
2023/12/08 20:21:57;;;;;;;165.38;64.85;;;-1.50;99.90;;;;;;5027174;28;20034;-49
2023/12/08 20:24:26;;;;;;;159.10;62.45;;;-1.40;99.90;;;;;;5027099;28;20048;-49
2023/12/08 20:26:52;;;;;;;175.38;62.83;;;-1.40;99.90;;;;;;5026502;28;20060;-46
2023/12/08 20:29:17;;;;;;;170.80;64.00;;;-1.50;99.90;;;;;;5025944;28;20133;-51
2023/12/08 20:31:43;;;;;;;191.82;67.45;;;-1.50;99.90;;;;;;5046882;28;20499;-50
2023/12/08 20:34:09;;;;;;;173.90;66.80;;;-1.50;99.90;;;;;;5047950;28;20435;-49
2023/12/08 20:36:35;;;;;;;169.05;64.13;;;-1.60;99.90;;;;;;5046748;28;20053;-50
2023/12/08 20:39:02;;;;;;;160.60;60.13;;;-1.50;99.90;;;;;;5048060;28;20503;-49
2023/12/08 20:41:28;;;;;;;140.40;56.00;;;-1.60;99.90;;;;;;5047905;28;20862;-52
2023/12/08 20:43:53;;;;;;;157.25;59.30;;;-1.60;99.90;;;;;;5048327;28;20025;-49
2023/12/08 20:46:19;;;;;;;157.10;60.15;;;-1.60;99.90;;;;;;5047964;28;20028;-51
2023/12/08 20:48:45;;;;;;;152.65;54.03;;;-1.50;99.90;;;;;;5047651;28;20036;-52
2023/12/08 20:51:12;;;;;;;157.80;59.63;;;-1.50;99.90;;;;;;5048469;28;20056;-51
2023/12/08 20:53:37;;;;;;;161.95;63.33;;;-1.40;99.90;;;;;;5048006;28;20044;-49
2023/12/08 20:56:08;;;;;;;165.45;58.38;;;-1.50;99.90;;;;;;5047909;28;20033;-49
2023/12/08 20:58:34;;;;;;;175.07;64.47;;;-1.50;99.90;;;;;;5047521;28;20064;-49
2023/12/08 21:01:01;;;;;;;169.90;61.33;;;-1.40;99.90;;;;;;5047980;28;20045;-51
2023/12/08 21:03:27;;;;;;;155.50;60.42;;;-1.40;99.90;;;;;;5047416;28;20033;-50
2023/12/08 21:05:53;;;;;;;168.38;63.35;;;-1.40;99.90;;;;;;5047610;28;20066;-51
2023/12/08 21:08:20;;;;;;;156.75;60.40;;;-1.40;99.90;;;;;;5047409;28;20451;-48
2023/12/08 21:10:45;;;;;;;168.65;62.47;;;-1.40;99.90;;;;;;5047269;28;20029;-52
2023/12/08 21:13:14;;;;;;;160.75;60.35;;;-1.40;99.90;;;;;;5047335;28;20033;-52
2023/12/08 21:15:40;;;;;;;162.10;59.92;;;-1.40;99.90;;;;;;5047493;28;20032;-52
2023/12/08 21:18:06;;;;;;;168.77;61.53;;;-1.40;99.90;;;;;;5046878;28;20780;-51
2023/12/08 21:20:32;;;;;;;162.18;61.40;;;-1.40;99.90;;;;;;5046918;28;20091;-53
2023/12/08 21:22:57;;;;;;;171.20;64.75;;;-1.40;99.90;;;;;;5047173;28;20396;-52
2023/12/08 21:25:23;;;;;;;148.05;60.17;;;-1.30;99.90;;;;;;5046996;28;20927;-52
2023/12/08 21:27:51;;;;;;;155.45;60.00;;;-1.40;99.90;;;;;;5047105;28;20040;-53
2023/12/08 21:30:17;;;;;;;154.40;58.58;;;-1.40;99.90;;;;;;5029415;28;20107;-53
2023/12/08 21:32:43;;;;;;;157.77;62.38;;;-1.40;99.90;;;;;;5046920;28;20507;-51
2023/12/08 21:35:09;;;;;;;165.50;62.83;;;-1.40;99.90;;;;;;5047340;28;20032;-52
2023/12/08 21:37:36;;;;;;;167.80;63.20;;;-1.40;99.90;;;;;;5025645;28;20057;-52
2023/12/08 21:40:02;;;;;;;172.00;61.13;;;-1.30;99.90;;;;;;5026837;28;20124;-52
2023/12/08 21:42:27;;;;;;;141.07;54.75;;;-1.20;99.90;;;;;;5025977;28;20103;-51
2023/12/08 21:44:53;;;;;;;158.25;59.33;;;-1.40;99.90;;;;;;5026749;28;20121;-51
2023/12/08 21:47:19;;;;;;;145.82;53.63;;;-1.50;99.90;;;;;;5026944;28;20524;-54
2023/12/08 21:49:44;;;;;;;147.02;55.90;;;-1.50;99.90;;;;;;5027080;28;20029;-50
2023/12/08 21:52:10;;;;;;;135.68;54.55;;;-1.40;99.90;;;;;;5026382;28;20079;-54
2023/12/08 21:54:36;;;;;;;155.85;56.33;;;-1.40;99.90;;;;;;5025645;28;20025;-53
2023/12/08 21:57:02;;;;;;;149.07;59.70;;;-1.40;99.90;;;;;;5026358;28;20099;-48
2023/12/08 21:59:29;;;;;;;142.40;54.92;;;-1.40;99.90;;;;;;5026251;28;20029;-50
2023/12/08 22:01:54;;;;;;;162.27;60.40;;;-1.40;99.90;;;;;;5026234;28;20055;-50
2023/12/08 22:04:20;;;;;;;129.07;55.00;;;-1.40;99.90;;;;;;5025782;28;20026;-51
2023/12/08 22:06:46;;;;;;;153.60;61.55;;;-1.40;99.90;;;;;;5025291;28;20041;-52
2023/12/08 22:09:11;;;;;;;156.60;58.63;;;-1.40;99.90;;;;;;5025412;28;20469;-53
2023/12/08 22:11:38;;;;;;;137.50;56.08;;;-1.40;99.90;;;;;;5026005;28;20048;-53
2023/12/08 22:14:03;;;;;;;146.52;57.45;;;-1.50;99.90;;;;;;5026388;28;20024;-48
2023/12/08 22:16:30;;;;;;;162.20;59.83;;;-1.40;99.90;;;;;;5025558;28;20022;-53
2023/12/08 22:18:56;;;;;;;153.85;59.17;;;-1.50;99.90;;;;;;5026379;28;20037;-49
2023/12/08 22:21:21;;;;;;;153.48;60.10;;;-1.40;99.90;;;;;;5025909;28;20068;-51
2023/12/08 22:23:48;;;;;;;153.18;56.20;;;-1.50;99.90;;;;;;5025814;28;20644;-49
2023/12/08 22:26:14;;;;;;;169.30;62.03;;;-1.40;99.90;;;;;;5025998;28;20035;-49
2023/12/08 22:28:39;;;;;;;174.18;61.58;;;-1.40;99.90;;;;;;5025549;28;20268;-49
2023/12/08 22:31:06;;;;;;;148.23;58.15;;;-1.50;99.90;;;;;;5025800;28;20068;-52
2023/12/08 22:33:32;;;;;;;161.38;60.42;;;-1.50;99.90;;;;;;5025906;28;20029;-49
2023/12/08 22:36:00;;;;;;;166.82;64.80;;;-1.50;99.90;;;;;;5023850;28;20370;-53
2023/12/08 22:38:29;;;;;;;164.00;64.32;;;-1.40;99.90;;;;;;5044080;28;20025;-47
2023/12/08 22:40:55;;;;;;;163.05;62.58;;;-1.50;99.90;;;;;;5044976;28;20499;-49
2023/12/08 22:43:20;;;;;;;153.13;60.53;;;-1.50;99.90;;;;;;5566575;22;20055;-51
2023/12/08 22:45:46;;;;;;;180.85;64.38;;;-1.40;99.90;;;;;;5086340;28;20024;-53
2023/12/08 22:48:11;;;;;;;159.65;60.10;;;-1.50;99.90;;;;;;5086171;28;20054;-51
2023/12/08 22:50:37;;;;;;;142.45;58.88;;;-1.40;99.90;;;;;;5085704;28;20051;-51
2023/12/08 22:53:03;;;;;;;156.48;58.25;;;-1.40;99.90;;;;;;5085897;28;20081;-52
2023/12/08 22:55:29;;;;;;;160.23;59.45;;;-1.40;99.90;;;;;;5086419;28;20027;-48
